Time;durP1;ratioP1;P1;durP2;ratioP2;P2;SDS_P1;SDS_P2;PMS_P1;PMS_P2;Temp;Humidity;BMP_temperature;BMP_pressure;BME280_temperature;BME280_humidity;BME280_pressure;Samples;Min_cycle;Max_cycle;Signal;HPM_P1;HPM_P2
2023/02/01 00:01:15;;;;;;;8.30;4.67;;;;;;;;;;5037502;28;20483;-80
2023/02/01 00:03:40;;;;;;;7.70;4.60;;;;;;;;;;5043456;28;20822;-81
2023/02/01 00:06:06;;;;;;;6.15;4.43;;;;;;;;;;5036018;28;20318;-80
2023/02/01 00:08:31;;;;;;;7.87;4.43;;;;;;;;;;5046768;28;20503;-79
2023/02/01 00:11:00;;;;;;;5.43;3.77;;;;;;;;;;5035850;28;20061;-80
2023/02/01 00:13:27;;;;;;;5.60;3.78;;;;;;;;;;5040759;28;20110;-80
2023/02/01 00:15:52;;;;;;;6.78;4.18;;;;;;;;;;5042585;28;20033;-80
2023/02/01 00:18:18;;;;;;;5.70;3.75;;;;;;;;;;5036850;28;20114;-79
2023/02/01 00:20:46;;;;;;;5.47;3.80;;;;;;;;;;5034487;28;20029;-80
2023/02/01 00:23:11;;;;;;;5.90;4.00;;;;;;;;;;5047531;28;20280;-81
2023/02/01 00:25:37;;;;;;;4.63;3.60;;;;;;;;;;5034359;28;20041;-79
2023/02/01 00:28:02;;;;;;;4.90;3.50;;;;;;;;;;5035104;28;20678;-80
2023/02/01 00:30:27;;;;;;;6.87;3.90;;;;;;;;;;5031335;28;20039;-81
2023/02/01 00:32:52;;;;;;;5.63;3.67;;;;;;;;;;5035396;28;20521;-80
2023/02/01 00:35:19;;;;;;;5.53;3.97;;;;;;;;;;5048169;28;20278;-80
2023/02/01 00:37:44;;;;;;;6.50;4.20;;;;;;;;;;5051552;28;20550;-81
2023/02/01 00:40:10;;;;;;;8.13;4.90;;;;;;;;;;5034115;28;20037;-80
2023/02/01 00:42:35;;;;;;;6.13;4.40;;;;;;;;;;5032488;28;20593;-80
2023/02/01 00:45:00;;;;;;;7.77;4.70;;;;;;;;;;5036790;28;20045;-80
2023/02/01 00:47:30;;;;;;;6.83;4.80;;;;;;;;;;5037238;28;20038;-80
2023/02/01 00:49:55;;;;;;;7.07;4.63;;;;;;;;;;5030986;28;20037;-80
2023/02/01 00:52:20;;;;;;;6.83;4.70;;;;;;;;;;5033807;28;20493;-80
2023/02/01 00:54:45;;;;;;;7.13;4.77;;;;;;;;;;5043551;28;20048;-80
2023/02/01 00:57:10;;;;;;;6.13;4.80;;;;;;;;;;5050452;28;20078;-80
2023/02/01 00:59:36;;;;;;;7.10;4.23;;;;;;;;;;5040096;28;20091;-81
2023/02/01 01:02:01;;;;;;;7.37;4.67;;;;;;;;;;5046159;28;20036;-80
2023/02/01 01:04:26;;;;;;;6.87;4.30;;;;;;;;;;5033929;28;20034;-80
2023/02/01 01:06:51;;;;;;;8.40;4.70;;;;;;;;;;5052892;28;20128;-81
2023/02/01 01:09:16;;;;;;;6.13;4.30;;;;;;;;;;5033043;28;20033;-80
2023/02/01 01:11:41;;;;;;;6.60;4.53;;;;;;;;;;5040814;28;20026;-80
2023/02/01 01:14:07;;;;;;;6.43;4.70;;;;;;;;;;5043751;28;20459;-80
2023/02/01 01:16:33;;;;;;;7.47;5.40;;;;;;;;;;5044807;28;20041;-81
2023/02/01 01:18:59;;;;;;;6.15;4.30;;;;;;;;;;5042745;28;20033;-80
2023/02/01 01:21:24;;;;;;;9.32;4.82;;;;;;;;;;5038219;28;20533;-80
2023/02/01 01:23:49;;;;;;;6.60;4.60;;;;;;;;;;5038294;28;20467;-79
2023/02/01 01:26:16;;;;;;;6.17;4.27;;;;;;;;;;5031745;28;20033;-80
2023/02/01 01:28:41;;;;;;;9.00;5.03;;;;;;;;;;5045647;28;20041;-81
2023/02/01 01:31:10;;;;;;;7.60;4.57;;;;;;;;;;5036390;28;20055;-80
2023/02/01 01:33:35;;;;;;;6.82;4.75;;;;;;;;;;5042538;28;20034;-80
2023/02/01 01:36:01;;;;;;;9.23;5.23;;;;;;;;;;5029135;28;20503;-80
2023/02/01 01:38:26;;;;;;;6.30;4.40;;;;;;;;;;5035240;28;20068;-79
2023/02/01 01:40:51;;;;;;;8.07;5.20;;;;;;;;;;5032228;28;20037;-80
2023/02/01 01:43:19;;;;;;;6.38;4.30;;;;;;;;;;5034189;28;20061;-80
2023/02/01 01:45:45;;;;;;;10.75;5.32;;;;;;;;;;5032594;28;20041;-80
2023/02/01 01:48:20;;;;;;;9.77;5.53;;;;;;;;;;5030757;28;20145;-80
2023/02/01 01:50:49;;;;;;;7.07;5.40;;;;;;;;;;5038257;28;20049;-80
2023/02/01 01:53:16;;;;;;;6.68;4.82;;;;;;;;;;5045063;28;20099;-81
2023/02/01 01:55:43;;;;;;;6.30;4.50;;;;;;;;;;5038829;28;20041;-80
2023/02/01 01:58:10;;;;;;;5.13;3.85;;;;;;;;;;5037872;28;20112;-79
2023/02/01 02:00:36;;;;;;;6.07;3.95;;;;;;;;;;5032569;28;20106;-80
2023/02/01 02:03:11;;;;;;;6.15;4.15;;;;;;;;;;5037421;28;20061;-79
2023/02/01 02:05:37;;;;;;;6.15;4.15;;;;;;;;;;5032410;28;20037;-81
2023/02/01 02:08:02;;;;;;;5.10;3.60;;;;;;;;;;5029906;28;20087;-79
2023/02/01 02:11:12;;;;;;;4.82;3.47;;;;;;;;;;5027919;28;20049;-80
2023/02/01 02:13:14;;;;;;;7.20;3.60;;;;;;;;;;5020310;28;20038;-81
2023/02/01 02:15:48;;;;;;;7.90;4.10;;;;;;;;;;5039676;28;20032;-80
2023/02/01 02:18:25;;;;;;;6.63;4.25;;;;;;;;;;5039087;28;20068;-80
2023/02/01 02:21:12;;;;;;;5.85;4.13;;;;;;;;;;5029398;28;20038;-81
2023/02/01 02:23:49;;;;;;;6.60;3.92;;;;;;;;;;5030300;28;20041;-81
2023/02/01 02:26:14;;;;;;;4.90;3.72;;;;;;;;;;5031418;28;20060;-80
2023/02/01 02:28:42;;;;;;;5.60;3.53;;;;;;;;;;5032233;28;20037;-79
2023/02/01 02:31:26;;;;;;;7.97;4.30;;;;;;;;;;5032479;28;20424;-80
2023/02/01 02:34:12;;;;;;;6.18;4.15;;;;;;;;;;5030169;28;20033;-80
2023/02/01 02:36:58;;;;;;;6.68;4.13;;;;;;;;;;5031732;28;20101;-80
2023/02/01 02:39:29;;;;;;;6.43;4.45;;;;;;;;;;5046526;28;20124;-80
2023/02/01 02:47:46;;;;;;;9.70;5.85;;;;;;;;;;5047116;28;20031;-79
2023/02/01 02:54:45;;;;;;;6.38;4.60;;;;;;;;;;5033218;28;20075;-79
2023/02/01 02:55:51;;;;;;;6.72;4.93;;;;;;;;;;5029279;28;20044;-80
2023/02/01 03:06:28;;;;;;;7.65;5.00;;;;;;;;;;5030777;28;20460;-79
2023/02/01 03:08:56;;;;;;;8.03;5.43;;;;;;;;;;5034817;28;20042;-80
2023/02/01 03:11:23;;;;;;;9.52;5.78;;;;;;;;;;5035495;28;20054;-79
2023/02/01 03:13:52;;;;;;;6.85;4.95;;;;;;;;;;5041531;28;20037;-79
2023/02/01 03:16:35;;;;;;;9.60;5.22;;;;;;;;;;5040633;28;20115;-79
2023/02/01 03:19:06;;;;;;;7.95;5.03;;;;;;;;;;5032966;28;20046;-79
2023/02/01 03:21:31;;;;;;;;;;;;;;;;;;5026563;28;20030;-80
2023/02/01 03:24:00;;;;;;;7.35;5.20;;;;;;;;;;5029826;28;19917;-79
2023/02/01 03:26:26;;;;;;;9.90;5.63;;;;;;;;;;5028221;28;20057;-81
2023/02/01 03:28:56;;;;;;;9.07;5.10;;;;;;;;;;5041246;28;20090;-80
2023/02/01 03:31:22;;;;;;;8.73;5.40;;;;;;;;;;5024703;28;20067;-79
2023/02/01 03:33:47;;;;;;;8.35;4.95;;;;;;;;;;5038823;28;20120;-78
2023/02/01 03:36:15;;;;;;;8.03;5.37;;;;;;;;;;5031288;28;20068;-79
2023/02/01 03:38:53;;;;;;;8.27;5.40;;;;;;;;;;5030446;28;20268;-79
2023/02/01 03:41:23;;;;;;;7.50;4.80;;;;;;;;;;5051478;28;20033;-80
2023/02/01 03:43:52;;;;;;;9.55;5.18;;;;;;;;;;5028278;28;20042;-82
2023/02/01 03:46:20;;;;;;;9.25;5.45;;;;;;;;;;5032462;28;20057;-79
2023/02/01 03:48:46;;;;;;;8.30;5.20;;;;;;;;;;5039352;28;20033;-79
2023/02/01 03:51:12;;;;;;;9.45;5.22;;;;;;;;;;5035384;28;20048;-79
2023/02/01 03:53:39;;;;;;;8.00;5.13;;;;;;;;;;5040036;28;20133;-79
2023/02/01 03:56:05;;;;;;;9.18;5.15;;;;;;;;;;5030430;28;20061;-79
2023/02/01 03:58:30;;;;;;;9.25;5.10;;;;;;;;;;5038650;28;20056;-80
2023/02/01 04:00:57;;;;;;;8.03;5.07;;;;;;;;;;5037830;28;20053;-79
2023/02/01 04:03:23;;;;;;;7.88;4.50;;;;;;;;;;5050271;28;20036;-78
2023/02/01 04:05:49;;;;;;;6.38;4.32;;;;;;;;;;5039860;28;20037;-79
2023/02/01 04:08:14;;;;;;;6.68;4.57;;;;;;;;;;5045879;28;20033;-79
2023/02/01 04:10:40;;;;;;;7.60;5.07;;;;;;;;;;5048827;28;20045;-79
2023/02/01 04:13:05;;;;;;;7.50;4.60;;;;;;;;;;5051461;28;20042;-79
2023/02/01 04:15:30;;;;;;;6.85;4.82;;;;;;;;;;5043402;28;20288;-80
2023/02/01 04:17:55;;;;;;;8.50;5.37;;;;;;;;;;5042101;28;20048;-78
2023/02/01 04:20:21;;;;;;;8.63;4.90;;;;;;;;;;5042132;28;20041;-79
2023/02/01 04:22:46;;;;;;;7.87;4.90;;;;;;;;;;5042336;28;20072;-80
2023/02/01 04:25:11;;;;;;;6.73;4.17;;;;;;;;;;5038745;28;20485;-79
2023/02/01 04:27:36;;;;;;;6.23;4.60;;;;;;;;;;5037589;28;20025;-79
2023/02/01 04:30:02;;;;;;;7.23;4.87;;;;;;;;;;5045444;28;20327;-80
2023/02/01 04:32:27;;;;;;;8.82;5.07;;;;;;;;;;5053678;28;20272;-79
2023/02/01 04:34:52;;;;;;;5.87;3.80;;;;;;;;;;5050492;28;20048;-79
2023/02/01 04:37:18;;;;;;;8.30;4.90;;;;;;;;;;5039306;28;20128;-78
2023/02/01 04:39:43;;;;;;;7.80;4.83;;;;;;;;;;5037276;28;20719;-79
2023/02/01 04:42:08;;;;;;;7.87;5.10;;;;;;;;;;5033226;28;20273;-80
2023/02/01 04:44:33;;;;;;;9.27;5.17;;;;;;;;;;5033704;28;20584;-79
2023/02/01 04:46:58;;;;;;;6.60;4.57;;;;;;;;;;5034315;28;20276;-79
2023/02/01 04:49:25;;;;;;;8.60;5.30;;;;;;;;;;5038241;28;20045;-79
2023/02/01 04:51:51;;;;;;;8.35;4.90;;;;;;;;;;5039895;28;20125;-79
2023/02/01 04:54:16;;;;;;;7.50;4.85;;;;;;;;;;5033571;28;20030;-80
2023/02/01 04:56:41;;;;;;;8.10;5.13;;;;;;;;;;5038572;28;20117;-80
2023/02/01 04:59:07;;;;;;;8.53;5.47;;;;;;;;;;5042893;28;20041;-78
2023/02/01 05:01:32;;;;;;;8.37;5.60;;;;;;;;;;5038598;28;20064;-80
2023/02/01 05:03:57;;;;;;;8.23;5.57;;;;;;;;;;5037049;28;20037;-80
2023/02/01 05:06:23;;;;;;;8.48;4.82;;;;;;;;;;5040023;28;20041;-79
2023/02/01 05:08:48;;;;;;;6.85;4.28;;;;;;;;;;5044973;28;20044;-80
2023/02/01 05:13:58;;;;;;;6.55;5.03;;;;;;;;;;5045333;28;20103;-80
2023/02/01 05:16:24;;;;;;;12.13;8.07;;;;;;;;;;5048381;28;20479;-80
2023/02/01 05:18:49;;;;;;;10.43;7.43;;;;;;;;;;5042729;28;20044;-79
2023/02/01 05:21:14;;;;;;;8.80;6.60;;;;;;;;;;5045033;28;20039;-79
2023/02/01 05:26:24;;;;;;;7.95;5.53;;;;;;;;;;5041209;28;20071;-79
2023/02/01 05:28:49;;;;;;;10.57;6.50;;;;;;;;;;5039595;28;20080;-79
2023/02/01 05:31:14;;;;;;;9.85;6.30;;;;;;;;;;5033750;28;20136;-78
2023/02/01 05:33:39;;;;;;;9.33;6.03;;;;;;;;;;5042657;28;20408;-79
2023/02/01 05:36:05;;;;;;;6.60;4.65;;;;;;;;;;5037785;28;20840;-79
2023/02/01 05:38:30;;;;;;;7.63;4.90;;;;;;;;;;5052482;28;20040;-81
2023/02/01 05:40:55;;;;;;;9.90;5.87;;;;;;;;;;5040748;28;20041;-82
2023/02/01 05:43:21;;;;;;;9.50;6.00;;;;;;;;;;5033106;28;20033;-78
2023/02/01 05:45:46;;;;;;;7.40;5.28;;;;;;;;;;5029260;28;20123;-79
2023/02/01 05:48:11;;;;;;;12.05;6.50;;;;;;;;;;5028908;28;20069;-78
2023/02/01 05:50:36;;;;;;;10.93;7.00;;;;;;;;;;5038445;28;20034;-78
2023/02/01 05:53:01;;;;;;;10.80;6.70;;;;;;;;;;5035106;28;20397;-78
2023/02/01 05:55:27;;;;;;;11.80;6.93;;;;;;;;;;5038343;28;20043;-79
2023/02/01 05:57:52;;;;;;;12.37;7.00;;;;;;;;;;5039753;28;20037;-78
2023/02/01 06:00:17;;;;;;;12.57;6.40;;;;;;;;;;5034201;28;20049;-79
2023/02/01 06:02:43;;;;;;;9.90;6.45;;;;;;;;;;5033360;28;20043;-79
2023/02/01 06:05:08;;;;;;;11.38;6.53;;;;;;;;;;5043850;28;20037;-79
2023/02/01 06:07:33;;;;;;;10.57;5.90;;;;;;;;;;5032760;28;20037;-79
2023/02/01 06:09:59;;;;;;;9.38;5.82;;;;;;;;;;5053825;28;20067;-78
2023/02/01 06:12:24;;;;;;;8.37;5.37;;;;;;;;;;5029269;28;22276;-79
2023/02/01 06:14:51;;;;;;;7.57;4.73;;;;;;;;;;5040315;28;20751;-79
2023/02/01 06:17:17;;;;;;;7.65;4.80;;;;;;;;;;5027504;28;20329;-78
2023/02/01 06:19:43;;;;;;;12.70;5.65;;;;;;;;;;5034380;28;20291;-79
2023/02/01 06:22:12;;;;;;;9.05;4.97;;;;;;;;;;5044509;28;20025;-78
2023/02/01 06:24:37;;;;;;;8.63;5.45;;;;;;;22.38;100.00;120241.88;5044320;28;20033;-78
2023/02/01 06:27:02;;;;;;;8.27;5.30;;;;;;;;;;5030656;28;20041;-83
2023/02/01 06:29:27;;;;;;;7.90;5.03;;;;;;;;;;5032244;28;20099;-82
2023/02/01 06:31:52;;;;;;;8.87;5.13;;;;;;;;;;5033956;28;20053;-80
2023/02/01 06:34:19;;;;;;;7.33;4.60;;;;;;;;;;5023699;28;20220;-78
2023/02/01 06:36:44;;;;;;;11.07;5.78;;;;;;;;;;5025801;28;20025;-78
2023/02/01 06:39:09;;;;;;;13.53;7.47;;;;;;;;;;5044066;28;20098;-79
2023/02/01 06:41:34;;;;;;;11.90;7.63;;;;;;;;;;5042450;28;20033;-78
2023/02/01 06:43:59;;;;;;;12.10;6.97;;;;;;;;;;5034026;28;20501;-79
2023/02/01 06:46:25;;;;;;;13.82;7.93;;;;;;;;;;5031457;28;20037;-79
2023/02/01 06:48:50;;;;;;;13.17;7.77;;;;;;;;;;5028691;28;20049;-79
2023/02/01 06:51:20;;;;;;;12.75;7.32;;;;;;;;;;5051722;28;20025;-79
2023/02/01 06:53:45;;;;;;;9.82;6.22;;;;;;;;;;5043480;28;20046;-81
2023/02/01 06:56:10;;;;;;;15.30;7.33;;;;;;;;;;5036886;28;20037;-79
2023/02/01 06:58:37;;;;;;;10.80;7.00;;;;;;;;;;5031384;28;20658;-79
2023/02/01 07:01:06;;;;;;;10.82;5.80;;;;;;;;;;5052382;28;20029;-79
2023/02/01 07:03:32;;;;;;;10.20;5.70;;;;;;;;;;5045924;28;20033;-79
2023/02/01 07:06:00;;;;;;;7.68;5.18;;;;;;;;;;5043098;28;20045;-78
2023/02/01 07:08:29;;;;;;;8.88;5.15;;;;;;;;;;5040877;28;20041;-79
2023/02/01 07:10:54;;;;;;;9.65;5.13;;;;;;;;;;5043339;28;20133;-80
2023/02/01 07:13:19;;;;;;;9.35;5.78;;;;;;;;;;5042454;28;20101;-79
2023/02/01 07:15:47;;;;;;;8.07;5.60;;;;;;;;;;5047869;28;20095;-79
2023/02/01 07:18:14;;;;;;;8.50;5.57;;;;;;;;;;5038488;28;20124;-80
2023/02/01 07:20:39;;;;;;;9.15;5.13;;;;;;;;;;5037608;28;20595;-80
2023/02/01 07:23:04;;;;;;;9.87;5.57;;;;;;;;;;5050269;28;20125;-79
2023/02/01 07:25:29;;;;;;;7.90;5.60;;;;;;;;;;5029620;28;20436;-79
2023/02/01 07:27:54;;;;;;;11.20;5.70;;;;;;;;;;5039928;28;20055;-78
2023/02/01 07:30:19;;;;;;;9.17;5.57;;;;;;;;;;5036710;28;20037;-79
2023/02/01 07:32:45;;;;;;;15.43;5.70;;;;;;;;;;5052086;28;20044;-79
2023/02/01 07:35:10;;;;;;;11.77;6.40;;;;;;;;;;5047037;28;20033;-78
2023/02/01 07:37:35;;;;;;;8.83;5.63;;;;;;;;;;5052755;28;20033;-79
2023/02/01 07:40:00;;;;;;;9.20;5.80;;;;;;;;;;5043547;28;20041;-78
2023/02/01 07:42:25;;;;;;;11.17;5.43;;;;;;;;;;5045050;28;20036;-79
2023/02/01 07:44:51;;;;;;;12.57;5.93;;;;;;;;;;5053304;28;20119;-79
2023/02/01 07:47:16;;;;;;;9.47;6.40;;;;;;;;;;5056125;28;20102;-81
2023/02/01 07:49:41;;;;;;;10.30;5.93;;;;;;;;;;5047747;28;20036;-79
2023/02/01 07:52:06;;;;;;;11.30;6.13;;;;;;;;;;5054371;28;20060;-79
2023/02/01 07:54:31;;;;;;;9.68;4.93;;;;;;;;;;5053239;28;20267;-79
2023/02/01 07:56:57;;;;;;;8.93;5.33;;;;;;;;;;5040013;28;20046;-79
2023/02/01 07:59:22;;;;;;;9.10;5.43;;;;;;;;;;5045350;28;20041;-79
2023/02/01 08:01:47;;;;;;;10.87;5.50;;;;;;;;;;5037059;28;20091;-81
2023/02/01 08:04:12;;;;;;;8.97;5.87;;;;;;;;;;5041132;28;20319;-80
2023/02/01 08:06:38;;;;;;;13.57;6.20;;;;;;;;;;5054863;28;20029;-80
2023/02/01 08:09:03;;;;;;;9.80;5.50;;;;;;;;;;5051813;28;20045;-79
2023/02/01 08:11:29;;;;;;;8.85;5.22;;;;;;;;;;5056851;28;20044;-80
2023/02/01 08:13:54;;;;;;;9.38;5.10;;;;;;;;;;5036798;28;20040;-79
2023/02/01 08:16:19;;;;;;;10.77;5.67;;;;;;;;;;5040984;28;20045;-80
2023/02/01 08:18:45;;;;;;;7.80;4.65;;;;;;;;;;5044441;28;20279;-80
2023/02/01 08:21:11;;;;;;;10.60;4.87;;;;;;;;;;5038610;28;20049;-80
2023/02/01 08:23:38;;;;;;;7.70;4.68;;;;;;;;;;5051203;28;20346;-80
2023/02/01 08:26:11;;;;;;;7.95;4.75;;;;;;;;;;5031168;28;20069;-80
2023/02/01 08:28:36;;;;;;;7.80;4.43;;;;;;;;;;5043159;28;20113;-79
2023/02/01 08:31:06;;;;;;;10.23;4.80;;;;;;;;;;5040170;28;20064;-79
2023/02/01 08:33:31;;;;;;;10.07;4.47;;;;;;;;;;5041113;28;20044;-82
2023/02/01 08:35:56;;;;;;;8.43;4.50;;;;;;;;;;5044960;28;20041;-80
2023/02/01 08:38:21;;;;;;;10.40;4.90;;;;;;;;;;5036598;28;20046;-81
2023/02/01 08:40:48;;;;;;;10.83;4.80;;;;;;;;;;5036074;28;20059;-80
2023/02/01 08:43:14;;;;;;;8.20;4.40;;;;;;;;;;5044440;28;20691;-79
2023/02/01 08:45:39;;;;;;;8.98;4.15;;;;;;;;;;5041356;28;20088;-82
2023/02/01 08:48:04;;;;;;;7.70;4.32;;;;;;;;;;5027210;28;20030;-79
2023/02/01 08:50:29;;;;;;;6.00;3.30;;;;;;;;;;5036469;28;20091;-80
2023/02/01 08:52:55;;;;;;;8.27;3.60;;;;;;;;;;5042795;28;20645;-78
2023/02/01 08:55:20;;;;;;;6.97;3.43;;;;;;;;;;5038539;28;20060;-79
2023/02/01 08:57:45;;;;;;;6.28;3.15;;;;;;;;;;5037750;28;20304;-79
2023/02/01 09:00:13;;;;;;;8.30;3.10;;;;;;;;;;5034250;28;20179;-80
2023/02/01 09:02:38;;;;;;;7.60;3.40;;;;;;;;;;5043613;28;20033;-81
2023/02/01 09:05:04;;;;;;;8.00;3.47;;;;;;;;;;5048151;28;20048;-79
2023/02/01 09:07:29;;;;;;;7.10;3.08;;;;;;;;;;5050502;28;20279;-79
2023/02/01 09:09:56;;;;;;;10.02;3.00;;;;;;;;;;5039108;28;20045;-78
2023/02/01 09:12:21;;;;;;;9.75;4.70;;;;;;;;;;5050123;28;20044;-80
2023/02/01 09:14:46;;;;;;;8.82;4.18;;;;;;;;;;5047656;28;20037;-80
2023/02/01 09:17:13;;;;;;;11.57;5.63;;;;;;;;;;5043357;28;20077;-79
2023/02/01 09:19:38;;;;;;;11.38;4.95;;;;;;;;;;5044886;28;20454;-81
2023/02/01 09:22:03;;;;;;;8.17;4.73;;;;;;;;;;5042592;28;20041;-80
2023/02/01 09:24:28;;;;;;;8.73;4.15;;;;;;;;;;5044460;28;20389;-79
2023/02/01 09:26:53;;;;;;;12.83;4.80;;;;;;;;;;5038543;28;20080;-81
2023/02/01 09:29:19;;;;;;;7.77;4.03;;;;;;;;;;5025427;28;20304;-79
2023/02/01 09:31:44;;;;;;;16.50;4.97;;;;;;;;;;5041349;28;20318;-79
2023/02/01 09:34:09;;;;;;;12.70;5.23;;;;;;;;;;5051046;28;20317;-80
2023/02/01 09:36:34;;;;;;;10.03;4.90;;;;;;;;;;5048937;28;20057;-79
2023/02/01 09:39:00;;;;;;;11.32;5.50;;;;;;;;;;5044987;28;20187;-80
2023/02/01 09:41:34;;;;;;;15.38;5.38;;;;;;;;;;5035344;28;20037;-78
2023/02/01 09:44:15;;;;;;;9.00;4.45;;;;;;;;;;5057842;28;20042;-78
2023/02/01 09:46:40;;;;;;;11.70;4.70;;;;;;;;;;5033970;28;20033;-79
2023/02/01 09:49:18;;;;;;;12.63;4.80;;;;;;;;;;5047585;28;20036;-79
2023/02/01 09:51:45;;;;;;;14.00;4.50;;;;;;;;;;5055300;28;20045;-81
2023/02/01 09:54:15;;;;;;;9.90;3.60;;;;;;;;;;5047826;28;20735;-80
2023/02/01 09:56:50;;;;;;;6.95;3.50;;;;;;;;;;5045892;28;20512;-79
2023/02/01 09:59:18;;;;;;;10.23;3.60;;;;;;;;;;5033074;28;20033;-80
2023/02/01 10:01:44;;;;;;;10.57;3.63;;;;;;;;;;5034344;28;20033;-79
2023/02/01 10:04:11;;;;;;;9.07;3.60;;;;;;;;;;5054124;28;20033;-79
2023/02/01 10:06:51;;;;;;;8.35;3.53;;;;;;;;;;5030580;28;20273;-79
2023/02/01 10:09:36;;;;;;;11.90;3.65;;;;;;;;;;5036274;28;20038;-79
2023/02/01 10:12:20;;;;;;;9.60;3.72;;;;;;;;;;5051712;28;20037;-80
2023/02/01 10:14:48;;;;;;;12.05;3.30;;;;;;;;;;5041368;28;20033;-79
2023/02/01 10:17:32;;;;;;;12.10;3.65;;;;;;;;;;5028027;28;20041;-80
2023/02/01 10:20:10;;;;;;;9.95;3.58;;;;;;;;;;5044449;28;20028;-80
2023/02/01 10:22:42;;;;;;;9.77;3.30;;;;;;;;;;5053178;28;20171;-78
2023/02/01 10:25:25;;;;;;;10.13;3.47;;;;;;;;;;5043833;28;20625;-79
2023/02/01 10:27:51;;;;;;;12.23;3.90;;;;;;;;;;5033562;28;20120;-79
2023/02/01 10:30:19;;;;;;;10.60;3.75;;;;;;;;;;5026453;28;20068;-80
2023/02/01 10:32:44;;;;;;;10.48;3.63;;;;;;;;;;5049024;28;20044;-80
2023/02/01 10:35:31;;;;;;;12.60;3.30;;;;;;;;;;5075259;27;20403;-80
2023/02/01 10:38:01;;;;;;;12.88;3.22;;;;;;;;;;5076606;28;20043;-80
2023/02/01 10:40:26;;;;;;;11.63;3.05;;;;;;;;;;5087702;28;20032;-80
2023/02/01 10:42:54;;;;;;;12.82;4.05;;;;;;;;;;5087386;28;20028;-80
2023/02/01 10:45:20;;;;;;;13.43;4.00;;;;;;;;;;5086366;28;20373;-80
2023/02/01 10:47:47;;;;;;;12.57;3.92;;;;;;;;;;5100260;28;20048;-80
2023/02/01 10:50:17;;;;;;;10.43;3.35;;;;;;;;;;5085258;28;20044;-80
2023/02/01 10:52:44;;;;;;;11.57;3.17;;;;;;;;;;5085571;28;20138;-80
2023/02/01 10:55:28;;;;;;;16.15;3.42;;;;;;;;;;5085991;28;20028;-80
2023/02/01 10:57:58;;;;;;;16.63;3.63;;;;;;;;;;5086005;28;20036;-80
2023/02/01 11:00:23;;;;;;;12.38;3.30;;;;;;;;;;5086942;28;20480;-80
2023/02/01 11:02:50;;;;;;;9.95;3.10;;;;;;;;;;5081385;28;20123;-80
2023/02/01 11:05:16;;;;;;;15.77;3.88;;;;;;;;;;5071876;28;20051;-79
2023/02/01 11:07:46;;;;;;;10.82;3.25;;;;;;;;;;5083321;28;20555;-80
2023/02/01 11:10:31;;;;;;;14.48;3.35;;;;;;;;;;5085529;28;20667;-80
2023/02/01 11:12:57;;;;;;;11.70;3.03;;;;;;;;;;5077322;28;20033;-79
2023/02/01 11:15:24;;;;;;;10.73;2.67;;;;;;;;;;5077029;28;20112;-80
2023/02/01 11:17:51;;;;;;;12.10;3.13;;;;;;;;;;5068245;28;20048;-80
2023/02/01 11:20:18;;;;;;;10.65;2.70;;;;;;;;;;5075283;28;20500;-80
2023/02/01 11:23:02;;;;;;;7.65;2.90;;;;;;;;;;5087604;28;20032;-81
2023/02/01 11:25:37;;;;;;;12.95;3.45;;;;;;;;;;5067510;28;20519;-81
2023/02/01 11:28:02;;;;;;;10.68;2.78;;;;;;;;;;5084172;28;20035;-81
2023/02/01 11:30:40;;;;;;;8.85;2.80;;;;;;;;;;5068856;28;20033;-81
2023/02/01 11:33:08;;;;;;;10.20;3.13;;;;;;;;;;5063840;28;20393;-81
2023/02/01 11:35:37;;;;;;;14.15;2.90;;;;;;;;;;5058319;28;20064;-81
2023/02/01 11:38:10;;;;;;;13.35;3.30;;;;;;;;;;5081660;28;20087;-81
2023/02/01 11:40:36;;;;;;;11.88;2.75;;;;;;;;;;5082231;28;20360;-82
2023/02/01 11:43:13;;;;;;;11.05;3.15;;;;;;;;;;5078188;28;20029;-81
2023/02/01 11:45:39;;;;;;;11.23;3.13;;;;;;;;;;5072088;28;20033;-82
2023/02/01 11:48:04;;;;;;;;;;;;;;;;;;5073409;28;20561;-81
2023/02/01 11:50:29;;;;;;;;;;;;;;;;;;5070563;28;19999;-82
2023/02/01 11:52:54;;;;;;;;;;;;;;;;;;5064989;28;19920;-81
2023/02/01 11:55:19;;;;;;;;;;;;;;;;;;5066219;28;20374;-82
2023/02/01 11:57:46;;;;;;;;;;;;;;;;;;5069320;28;19920;-78
2023/02/01 12:00:12;;;;;;;;;;;;;;;;;;5073245;28;19920;-83
2023/02/01 12:02:38;;;;;;;;;;;;;;;;;;5066145;28;19940;-84
2023/02/01 12:05:03;;;;;;;;;;;;;;;;;;5068952;28;19917;-83
2023/02/01 12:07:28;;;;;;;;;;;;;;;;;;5070914;28;19952;-83
2023/02/01 12:09:53;;;;;;;;;;;;;;;;;;5075654;28;20046;-81
2023/02/01 12:12:18;;;;;;;;;;;;;;;;;;5074440;28;19912;-82
2023/02/01 12:14:43;;;;;;;;;;;;;;;;;;5064549;28;20387;-81
2023/02/01 12:17:08;;;;;;;;;;;;;;;;;;5066618;28;19916;-81
2023/02/01 12:19:34;;;;;;;;;;;;;;;;;;5068911;28;19916;-82
2023/02/01 12:21:59;;;;;;;;;;;;;;;;;;5063487;28;19924;-80
2023/02/01 12:24:24;;;;;;;;;;;;;;;;;;5067214;28;19916;-82
2023/02/01 12:26:49;;;;;;;;;;;;;;;;;;5069147;28;19948;-81
2023/02/01 12:29:14;;;;;;;;;;;;;;;;;;5072185;28;19919;-81
2023/02/01 12:31:39;;;;;;;;;;;;;;;;;;5072585;28;19940;-81
2023/02/01 12:34:04;;;;;;;;;;;;;;;;;;5058853;28;19940;-80
2023/02/01 12:36:29;;;;;;;;;;;;;;;;;;5063127;28;20307;-81
2023/02/01 12:38:54;;;;;;;;;;;;;;;;;;5074774;28;19912;-81
2023/02/01 12:41:26;;;;;;;12.90;3.23;;;;;;;;;;5064772;28;20797;-83
2023/02/01 12:43:57;;;;;;;12.45;3.72;;;;;;;;;;5075685;28;20124;-81
2023/02/01 12:46:26;;;;;;;16.80;3.70;;;;;;;;;;5063446;28;20107;-81
2023/02/01 12:48:58;;;;;;;11.02;3.00;;;;;;;;;;5057573;28;20511;-81
2023/02/01 12:51:25;;;;;;;12.60;2.80;;;;;;;;;;5072097;28;20037;-82
2023/02/01 12:53:52;;;;;;;12.05;3.03;;;;;;;;;;5066681;28;20028;-81
2023/02/01 12:56:23;;;;;;;12.60;2.88;;;;;;;;;;5068349;28;20639;-82
2023/02/01 12:58:48;;;;;;;;;;;;;;;;;;5068609;28;20116;-80
2023/02/01 13:01:20;;;;;;;11.00;2.87;;;;;;;;;;5074188;28;19948;-82
2023/02/01 13:04:05;;;;;;;14.30;3.03;;;;;;;;;;5060007;28;20330;-83
2023/02/01 13:06:52;;;;;;;12.23;2.85;;;;;;;;;;5065068;28;20551;-83
2023/02/01 13:09:18;;;;;;;8.35;2.60;;;;;;;;;;5063497;28;20047;-85
2023/02/01 13:11:45;;;;;;;9.70;2.63;;;;;;;;;;5067602;28;20128;-85
2023/02/01 13:14:40;;;;;;;10.30;2.80;;;;;;;;;;5061774;28;20294;-85
2023/02/01 13:17:09;;;;;;;13.20;3.00;;;;;;;;;;5046591;28;20045;-84
2023/02/01 13:19:50;;;;;;;8.93;2.92;;;;;;;;;;5056069;28;20040;-84
2023/02/01 13:22:19;;;;;;;10.55;2.78;;;;;;;;;;5060080;28;20044;-84
2023/02/01 13:24:58;;;;;;;10.40;2.72;;;;;;;;;;5058094;28;20037;-84
2023/02/01 13:27:26;;;;;;;8.13;2.92;;;;;;;;;;5062925;28;20033;-84
2023/02/01 13:30:14;;;;;;;10.57;3.15;;;;;;;;;;5063465;28;20048;-84
2023/02/01 13:32:58;;;;;;;11.50;2.90;;;;;;;;;;5062920;28;20071;-84
2023/02/01 13:35:43;;;;;;;9.95;2.92;;;;;;;;;;5062618;28;20071;-84
2023/02/01 13:38:08;;;;;;;9.40;2.97;;;;;;;;;;5062920;28;20105;-84
2023/02/01 13:40:50;;;;;;;9.32;2.58;;;;;;;;;;5069336;28;20063;-84
2023/02/01 13:43:19;;;;;;;7.95;2.60;;;;;;;;;;5057458;28;20056;-84
2023/02/01 13:45:51;;;;;;;14.13;2.80;;;;;;;;;;5058933;28;20035;-84
2023/02/01 13:48:25;;;;;;;11.05;2.92;;;;;;;;;;5075024;28;20124;-84
2023/02/01 13:50:51;;;;;;;8.48;2.58;;;;;;;;;;5075717;28;20037;-84
2023/02/01 13:53:26;;;;;;;10.00;2.65;;;;;;;;;;5063243;28;20392;-84
2023/02/01 13:56:03;;;;;;;8.93;2.88;;;;;;;;;;5065695;28;20037;-83
2023/02/01 13:58:33;;;;;;;9.43;2.45;;;;;;;;;;5067374;28;20048;-84
2023/02/01 14:01:17;;;;;;;10.07;3.00;;;;;;;;;;5063641;28;20049;-84
2023/02/01 14:03:44;;;;;;;10.23;2.60;;;;;;;;;;5070340;28;20041;-82
2023/02/01 14:06:32;;;;;;;10.20;2.40;;;;;;;;;;5063193;28;20083;-85
2023/02/01 14:09:09;;;;;;;10.00;2.78;;;;;;;;;;5064611;28;20546;-85
2023/02/01 14:11:37;;;;;;;8.02;2.38;;;;;;;;;;5066941;28;20432;-85
2023/02/01 14:14:17;;;;;;;13.13;2.75;;;;;;;;;;5074448;28;20025;-85
2023/02/01 14:16:42;;;;;;;8.23;2.78;;;;;;;;;;5067200;28;20067;-84
2023/02/01 14:19:09;;;;;;;10.82;2.72;;;;;;;;;;5061616;28;20033;-83
2023/02/01 14:21:45;;;;;;;11.20;2.80;;;;;;;;;;5066898;28;20041;-84
2023/02/01 14:24:10;;;;;;;7.35;2.35;;;;;;;;;;5056849;28;20086;-83
2023/02/01 14:26:42;;;;;;;10.02;2.58;;;;;;;;;;5060706;28;20522;-83
2023/02/01 14:29:07;;;;;;;;;;;;;;;;;;5062762;28;20037;-83
2023/02/01 14:31:41;;;;;;;14.70;3.33;;;;;;;;;;5059974;28;19920;-84
2023/02/01 14:34:29;;;;;;;11.63;2.80;;;;;;;;;;5069491;28;20403;-84
2023/02/01 14:36:57;;;;;;;11.75;2.80;;;;;;;;;;5070320;28;20064;-84
2023/02/01 14:39:27;;;;;;;12.25;3.42;;;;;;;;;;5071789;28;20033;-83
2023/02/01 14:41:55;;;;;;;7.93;2.38;;;;;;;;;;5068783;28;20029;-85
2023/02/01 14:44:25;;;;;;;8.15;2.40;;;;;;;;;;5068060;28;20040;-84
2023/02/01 14:47:14;;;;;;;8.10;2.40;;;;;;;;;;5037250;28;20051;-84
2023/02/01 14:49:48;;;;;;;7.70;2.20;;;;;;;;;;5072189;28;20033;-84
2023/02/01 14:52:16;;;;;;;7.47;2.45;;;;;;;;;;5060551;28;20060;-84
2023/02/01 14:54:42;;;;;;;9.43;2.33;;;;;;;;;;5067457;28;20029;-84
2023/02/01 14:57:14;;;;;;;8.00;2.42;;;;;;;;;;5060016;28;20036;-85
2023/02/01 14:59:39;;;;;;;10.88;3.20;;;;;;;;;;5056088;28;20034;-85
2023/02/01 15:02:17;;;;;;;9.43;2.80;;;;;;;;;;5050116;28;20120;-85
2023/02/01 15:04:42;;;;;;;9.40;2.25;;;;;;;;;;5078514;28;20062;-85
2023/02/01 15:07:11;;;;;;;10.23;2.50;;;;;;;;;;5065717;28;20029;-85
2023/02/01 15:09:38;;;;;;;11.50;2.40;;;;;;;;;;5070419;28;20064;-85
2023/02/01 15:12:05;;;;;;;12.30;2.72;;;;;;;;;;5062620;28;20044;-85
2023/02/01 15:14:31;;;;;;;12.77;2.80;;;;;;;;;;5079014;28;20040;-85